sensor_id;sensor_type;location;lat;lon;timestamp;pressure;altitude;pressure_sealevel;temperature;humidity
26865;BME280;40618;51.166;10.322;2022-10-16T00:01:17;97070.81;;;13.99;86.03
26865;BME280;40618;51.166;10.322;2022-10-16T00:03:45;97070.81;;;13.99;86.24
26865;BME280;40618;51.166;10.322;2022-10-16T00:06:13;97077.78;;;13.98;85.86
26865;BME280;40618;51.166;10.322;2022-10-16T00:08:40;97074.31;;;13.98;85.98
26865;BME280;40618;51.166;10.322;2022-10-16T00:11:19;97063.09;;;13.97;86.15
26865;BME280;40618;51.166;10.322;2022-10-16T00:13:46;97064.97;;;13.94;85.73
26865;BME280;40618;51.166;10.322;2022-10-16T00:16:13;97076.31;;;13.93;85.98
26865;BME280;40618;51.166;10.322;2022-10-16T00:18:39;97078.25;;;13.89;86.00
26865;BME280;40618;51.166;10.322;2022-10-16T00:21:11;97081.75;;;13.88;86.02
26865;BME280;40618;51.166;10.322;2022-10-16T00:23:39;97081.84;;;13.86;85.95
26865;BME280;40618;51.166;10.322;2022-10-16T00:26:08;97090.47;;;13.87;86.10
26865;BME280;40618;51.166;10.322;2022-10-16T00:28:36;97096.47;;;13.89;86.04
26865;BME280;40618;51.166;10.322;2022-10-16T00:31:06;97103.34;;;13.90;85.86
26865;BME280;40618;51.166;10.322;2022-10-16T00:33:34;97108.56;;;13.90;86.02
26865;BME280;40618;51.166;10.322;2022-10-16T00:36:02;97104.25;;;13.89;85.91
26865;BME280;40618;51.166;10.322;2022-10-16T00:38:29;97100.75;;;13.90;85.77
26865;BME280;40618;51.166;10.322;2022-10-16T00:40:55;97102.50;;;13.90;86.32
26865;BME280;40618;51.166;10.322;2022-10-16T00:43:47;97105.97;;;13.90;85.97
26865;BME280;40618;51.166;10.322;2022-10-16T00:49:28;97100.06;;;13.86;86.12
26865;BME280;40618;51.166;10.322;2022-10-16T00:51:49;97103.56;;;13.85;86.07
26865;BME280;40618;51.166;10.322;2022-10-16T00:54:23;97095.75;;;13.85;86.24
26865;BME280;40618;51.166;10.322;2022-10-16T00:56:51;97098.34;;;13.85;85.91
26865;BME280;40618;51.166;10.322;2022-10-16T00:59:33;97082.00;;;13.83;86.02
26865;BME280;40618;51.166;10.322;2022-10-16T01:02:03;97091.41;;;13.86;86.20
26865;BME280;40618;51.166;10.322;2022-10-16T01:04:35;97104.34;;;13.87;85.87
26865;BME280;40618;51.166;10.322;2022-10-16T01:10:17;97088.84;;;13.84;86.18
26865;BME280;40618;51.166;10.322;2022-10-16T01:13:27;97100.13;;;13.85;86.26
26865;BME280;40618;51.166;10.322;2022-10-16T01:16:05;97087.88;;;13.87;86.08
26865;BME280;40618;51.166;10.322;2022-10-16T01:18:52;97101.75;;;13.87;86.34
26865;BME280;40618;51.166;10.322;2022-10-16T01:21:33;97100.81;;;13.88;85.89
26865;BME280;40618;51.166;10.322;2022-10-16T01:24:27;97101.75;;;13.87;85.78
26865;BME280;40618;51.166;10.322;2022-10-16T01:27:10;97118.19;;;13.88;85.90
26865;BME280;40618;51.166;10.322;2022-10-16T01:29:50;97113.06;;;13.86;85.87
26865;BME280;40618;51.166;10.322;2022-10-16T01:35:18;97115.59;;;13.88;86.27
26865;BME280;40618;51.166;10.322;2022-10-16T01:38:16;97122.47;;;13.89;86.09
26865;BME280;40618;51.166;10.322;2022-10-16T01:40:51;97124.22;;;13.88;86.35
26865;BME280;40618;51.166;10.322;2022-10-16T01:43:29;97110.38;;;13.88;86.14
26865;BME280;40618;51.166;10.322;2022-10-16T01:46:00;97124.19;;;13.90;86.15
26865;BME280;40618;51.166;10.322;2022-10-16T01:48:28;97114.69;;;13.89;86.35
26865;BME280;40618;51.166;10.322;2022-10-16T01:51:25;97120.78;;;13.88;86.34
26865;BME280;40618;51.166;10.322;2022-10-16T01:53:54;97132.03;;;13.88;85.89
26865;BME280;40618;51.166;10.322;2022-10-16T01:56:24;97126.06;;;13.86;86.13
26865;BME280;40618;51.166;10.322;2022-10-16T01:58:55;97122.66;;;13.86;85.94
26865;BME280;40618;51.166;10.322;2022-10-16T02:01:30;97118.44;;;13.83;86.05
26865;BME280;40618;51.166;10.322;2022-10-16T02:03:59;97118.34;;;13.85;85.93
26865;BME280;40618;51.166;10.322;2022-10-16T02:06:29;97122.84;;;13.81;86.21
26865;BME280;40618;51.166;10.322;2022-10-16T02:08:55;97122.09;;;13.79;86.02
26865;BME280;40618;51.166;10.322;2022-10-16T02:11:20;97118.56;;;13.80;86.15
26865;BME280;40618;51.166;10.322;2022-10-16T02:13:48;97118.56;;;13.80;85.89
26865;BME280;40618;51.166;10.322;2022-10-16T02:16:19;97117.00;;;13.76;86.34
26865;BME280;40618;51.166;10.322;2022-10-16T02:18:44;97129.34;;;13.73;86.13
26865;BME280;40618;51.166;10.322;2022-10-16T02:24:04;97133.84;;;13.69;86.16
26865;BME280;40618;51.166;10.322;2022-10-16T02:26:52;97136.53;;;13.67;86.13
26865;BME280;40618;51.166;10.322;2022-10-16T02:29:24;97146.09;;;13.67;86.15
26865;BME280;40618;51.166;10.322;2022-10-16T02:31:55;97143.50;;;13.67;85.88
26865;BME280;40618;51.166;10.322;2022-10-16T02:34:25;97136.59;;;13.66;85.75
26865;BME280;40618;51.166;10.322;2022-10-16T02:36:52;97131.47;;;13.64;86.21
26865;BME280;40618;51.166;10.322;2022-10-16T02:39:19;97128.88;;;13.64;86.17
26865;BME280;40618;51.166;10.322;2022-10-16T02:41:45;97127.19;;;13.63;85.95
26865;BME280;40618;51.166;10.322;2022-10-16T02:44:11;97125.47;;;13.62;86.17
26865;BME280;40618;51.166;10.322;2022-10-16T02:46:36;97113.34;;;13.63;86.25
26865;BME280;40618;51.166;10.322;2022-10-16T02:49:02;97128.94;;;13.63;86.02
26865;BME280;40618;51.166;10.322;2022-10-16T02:51:28;97126.41;;;13.61;86.27
26865;BME280;40618;51.166;10.322;2022-10-16T02:53:53;97117.84;;;13.59;86.07
26865;BME280;40618;51.166;10.322;2022-10-16T02:56:19;97121.28;;;13.60;85.95
26865;BME280;40618;51.166;10.322;2022-10-16T02:58:45;97117.84;;;13.59;86.01
26865;BME280;40618;51.166;10.322;2022-10-16T03:01:11;97117.91;;;13.58;85.75
26865;BME280;40618;51.166;10.322;2022-10-16T03:03:38;97124.09;;;13.55;85.80
26865;BME280;40618;51.166;10.322;2022-10-16T03:06:03;97123.41;;;13.51;86.02
26865;BME280;40618;51.166;10.322;2022-10-16T03:08:29;97116.56;;;13.49;86.03
26865;BME280;40618;51.166;10.322;2022-10-16T03:10:55;97121.84;;;13.47;85.92
26865;BME280;40618;51.166;10.322;2022-10-16T03:13:20;97131.44;;;13.47;86.21
26865;BME280;40618;51.166;10.322;2022-10-16T03:15:46;97133.13;;;13.48;86.05
26865;BME280;40618;51.166;10.322;2022-10-16T03:18:12;97138.31;;;13.48;86.03
26865;BME280;40618;51.166;10.322;2022-10-16T03:20:38;97133.94;;;13.48;85.82
26865;BME280;40618;51.166;10.322;2022-10-16T03:23:03;97156.38;;;13.51;85.92
26865;BME280;40618;51.166;10.322;2022-10-16T03:25:29;97169.31;;;13.52;85.88
26865;BME280;40618;51.166;10.322;2022-10-16T03:27:54;97161.50;;;13.52;85.93
26865;BME280;40618;51.166;10.322;2022-10-16T03:30:20;97150.25;;;13.52;86.06
26865;BME280;40618;51.166;10.322;2022-10-16T03:32:46;97155.50;;;13.50;86.00
26865;BME280;40618;51.166;10.322;2022-10-16T03:35:11;97152.91;;;13.50;86.08
26865;BME280;40618;51.166;10.322;2022-10-16T03:37:37;97146.81;;;13.51;86.11
26865;BME280;40618;51.166;10.322;2022-10-16T03:40:04;97145.91;;;13.52;86.21
26865;BME280;40618;51.166;10.322;2022-10-16T03:42:30;97148.56;;;13.51;85.91
26865;BME280;40618;51.166;10.322;2022-10-16T03:44:55;97140.78;;;13.51;86.13
26865;BME280;40618;51.166;10.322;2022-10-16T03:47:21;97156.44;;;13.49;85.72
26865;BME280;40618;51.166;10.322;2022-10-16T03:49:49;97166.13;;;13.46;85.81
26865;BME280;40618;51.166;10.322;2022-10-16T03:52:15;97160.09;;;13.45;85.88
26865;BME280;40618;51.166;10.322;2022-10-16T03:54:41;97157.50;;;13.45;86.03
26865;BME280;40618;51.166;10.322;2022-10-16T03:57:06;97164.44;;;13.45;86.08
26865;BME280;40618;51.166;10.322;2022-10-16T03:59:32;97168.75;;;13.46;85.99
26865;BME280;40618;51.166;10.322;2022-10-16T04:01:57;97179.16;;;13.46;85.85
26865;BME280;40618;51.166;10.322;2022-10-16T04:04:23;97183.50;;;13.45;86.22
26865;BME280;40618;51.166;10.322;2022-10-16T04:06:50;97200.03;;;13.44;85.77
26865;BME280;40618;51.166;10.322;2022-10-16T04:09:15;97185.41;;;13.42;86.05
26865;BME280;40618;51.166;10.322;2022-10-16T04:11:41;97184.69;;;13.38;86.12
26865;BME280;40618;51.166;10.322;2022-10-16T04:14:06;97183.84;;;13.37;85.78
26865;BME280;40618;51.166;10.322;2022-10-16T04:16:32;97183.84;;;13.37;85.83
26865;BME280;40618;51.166;10.322;2022-10-16T04:18:57;97181.34;;;13.36;85.77
26865;BME280;40618;51.166;10.322;2022-10-16T04:21:23;97182.16;;;13.36;86.04
26865;BME280;40618;51.166;10.322;2022-10-16T04:23:48;97185.69;;;13.35;85.77
26865;BME280;40618;51.166;10.322;2022-10-16T04:26:14;97194.34;;;13.36;85.97
26865;BME280;40618;51.166;10.322;2022-10-16T04:28:40;97199.47;;;13.37;85.90
26865;BME280;40618;51.166;10.322;2022-10-16T04:31:06;97204.66;;;13.37;85.89
26865;BME280;40618;51.166;10.322;2022-10-16T04:33:32;97222.94;;;13.36;85.97
26865;BME280;40618;51.166;10.322;2022-10-16T04:35:59;97220.34;;;13.36;85.71
26865;BME280;40618;51.166;10.322;2022-10-16T04:38:26;97214.31;;;13.34;86.09
26865;BME280;40618;51.166;10.322;2022-10-16T04:40:52;97223.06;;;13.33;85.71
26865;BME280;40618;51.166;10.322;2022-10-16T04:43:18;97224.88;;;13.31;85.83
26865;BME280;40618;51.166;10.322;2022-10-16T04:45:44;97225.72;;;13.31;85.81
26865;BME280;40618;51.166;10.322;2022-10-16T04:48:10;97226.63;;;13.30;85.80
26865;BME280;40618;51.166;10.322;2022-10-16T04:50:35;97220.56;;;13.30;85.70
26865;BME280;40618;51.166;10.322;2022-10-16T04:53:01;97231.97;;;13.27;85.82
26865;BME280;40618;51.166;10.322;2022-10-16T04:55:27;97232.03;;;13.26;85.76
26865;BME280;40618;51.166;10.322;2022-10-16T04:57:52;97233.84;;;13.24;85.88
26865;BME280;40618;51.166;10.322;2022-10-16T05:00:18;97231.34;;;13.22;85.96
26865;BME280;40618;51.166;10.322;2022-10-16T05:02:43;97229.63;;;13.21;85.83
26865;BME280;40618;51.166;10.322;2022-10-16T05:05:09;97230.44;;;13.23;86.10
26865;BME280;40618;51.166;10.322;2022-10-16T05:07:35;97233.03;;;13.23;85.97
26865;BME280;40618;51.166;10.322;2022-10-16T05:10:00;97237.38;;;13.23;86.09
26865;BME280;40618;51.166;10.322;2022-10-16T05:12:26;97241.72;;;13.22;86.08
26865;BME280;40618;51.166;10.322;2022-10-16T05:14:52;97234.06;;;13.19;86.07
26865;BME280;40618;51.166;10.322;2022-10-16T05:17:17;97210.78;;;13.16;85.68
26865;BME280;40618;51.166;10.322;2022-10-16T05:19:43;97214.25;;;13.16;86.08
26865;BME280;40618;51.166;10.322;2022-10-16T05:22:08;97212.63;;;13.14;85.83
26865;BME280;40618;51.166;10.322;2022-10-16T05:24:34;97205.72;;;13.13;86.05
26865;BME280;40618;51.166;10.322;2022-10-16T05:26:59;97204.91;;;13.12;86.07
26865;BME280;40618;51.166;10.322;2022-10-16T05:29:25;97204.91;;;13.12;86.12
26865;BME280;40618;51.166;10.322;2022-10-16T05:31:52;97208.41;;;13.11;86.03
26865;BME280;40618;51.166;10.322;2022-10-16T05:34:19;97205.81;;;13.11;86.05
26865;BME280;40618;51.166;10.322;2022-10-16T05:36:45;97199.69;;;13.12;86.17
26865;BME280;40618;51.166;10.322;2022-10-16T05:39:11;97198.75;;;13.13;86.00
26865;BME280;40618;51.166;10.322;2022-10-16T05:41:38;97209.97;;;13.15;86.29
26865;BME280;40618;51.166;10.322;2022-10-16T05:44:04;97199.56;;;13.15;86.41
26865;BME280;40618;51.166;10.322;2022-10-16T05:46:31;97196.06;;;13.16;86.19
26865;BME280;40618;51.166;10.322;2022-10-16T05:48:57;97201.09;;;13.19;86.23
26865;BME280;40618;51.166;10.322;2022-10-16T05:51:23;97202.88;;;13.19;86.35
26865;BME280;40618;51.166;10.322;2022-10-16T05:53:48;97201.09;;;13.19;86.29
26865;BME280;40618;51.166;10.322;2022-10-16T05:56:14;97214.09;;;13.19;86.39
26865;BME280;40618;51.166;10.322;2022-10-16T05:58:41;97215.88;;;13.19;86.08
26865;BME280;40618;51.166;10.322;2022-10-16T06:01:10;97216.78;;;13.18;86.18
26865;BME280;40618;51.166;10.322;2022-10-16T06:03:38;97202.00;;;13.18;86.36
26865;BME280;40618;51.166;10.322;2022-10-16T06:06:11;97214.19;;;13.18;86.22
26865;BME280;40618;51.166;10.322;2022-10-16T06:08:40;97218.50;;;13.17;86.50
26865;BME280;40618;51.166;10.322;2022-10-16T06:11:09;97217.53;;;13.20;86.56
26865;BME280;40618;51.166;10.322;2022-10-16T06:13:36;97229.72;;;13.19;86.49
26865;BME280;40618;51.166;10.322;2022-10-16T06:16:03;97241.91;;;13.17;86.16
26865;BME280;40618;51.166;10.322;2022-10-16T06:18:29;97240.25;;;13.16;86.38
26865;BME280;40618;51.166;10.322;2022-10-16T06:20:56;97246.28;;;13.17;86.35
26865;BME280;40618;51.166;10.322;2022-10-16T06:23:23;97242.84;;;13.16;86.25
26865;BME280;40618;51.166;10.322;2022-10-16T06:25:48;97238.47;;;13.17;86.52
26865;BME280;40618;51.166;10.322;2022-10-16T06:28:15;97249.78;;;13.16;86.31
26865;BME280;40618;51.166;10.322;2022-10-16T06:30:41;97259.34;;;13.15;86.60
26865;BME280;40618;51.166;10.322;2022-10-16T06:33:09;97262.03;;;13.14;86.23
26865;BME280;40618;51.166;10.322;2022-10-16T06:35:35;97263.75;;;13.13;86.51
26865;BME280;40618;51.166;10.322;2022-10-16T06:38:01;97261.09;;;13.15;86.55
26865;BME280;40618;51.166;10.322;2022-10-16T06:40:27;97261.94;;;13.15;86.21
26865;BME280;40618;51.166;10.322;2022-10-16T06:42:55;97267.97;;;13.16;86.23
26865;BME280;40618;51.166;10.322;2022-10-16T06:45:20;97270.59;;;13.16;86.32
26865;BME280;40618;51.166;10.322;2022-10-16T06:47:46;97275.72;;;13.17;86.66
26865;BME280;40618;51.166;10.322;2022-10-16T06:50:11;97279.09;;;13.19;86.31
26865;BME280;40618;51.166;10.322;2022-10-16T06:52:37;97279.81;;;13.23;86.20
26865;BME280;40618;51.166;10.322;2022-10-16T06:55:03;97274.56;;;13.25;86.36
26865;BME280;40618;51.166;10.322;2022-10-16T06:57:29;97275.31;;;13.27;86.35
26865;BME280;40618;51.166;10.322;2022-10-16T06:59:54;97277.09;;;13.26;86.58
26865;BME280;40618;51.166;10.322;2022-10-16T07:02:20;97287.41;;;13.28;86.52
26865;BME280;40618;51.166;10.322;2022-10-16T07:04:45;97289.94;;;13.29;86.51
26865;BME280;40618;51.166;10.322;2022-10-16T07:07:11;97302.81;;;13.32;86.46
26865;BME280;40618;51.166;10.322;2022-10-16T07:09:36;97309.63;;;13.35;86.54
26865;BME280;40618;51.166;10.322;2022-10-16T07:12:02;97315.72;;;13.35;86.47
26865;BME280;40618;51.166;10.322;2022-10-16T07:14:28;97320.94;;;13.35;86.12
26865;BME280;40618;51.166;10.322;2022-10-16T07:16:55;97321.75;;;13.36;86.29
26865;BME280;40618;51.166;10.322;2022-10-16T07:19:20;97327.78;;;13.36;86.32
26865;BME280;40618;51.166;10.322;2022-10-16T07:21:46;97343.41;;;13.36;85.99
26865;BME280;40618;51.166;10.322;2022-10-16T07:24:16;97352.97;;;13.36;85.94
26865;BME280;40618;51.166;10.322;2022-10-16T07:26:43;97360.69;;;13.37;85.86
26865;BME280;40618;51.166;10.322;2022-10-16T07:29:15;97373.63;;;13.39;85.85
26865;BME280;40618;51.166;10.322;2022-10-16T07:31:43;97376.22;;;13.39;86.00
26865;BME280;40618;51.166;10.322;2022-10-16T07:34:12;97364.94;;;13.40;85.77
26865;BME280;40618;51.166;10.322;2022-10-16T07:36:38;97353.69;;;13.40;86.15
26865;BME280;40618;51.166;10.322;2022-10-16T07:39:04;97352.69;;;13.42;86.11
26865;BME280;40618;51.166;10.322;2022-10-16T07:41:30;97349.19;;;13.43;86.11
26865;BME280;40618;51.166;10.322;2022-10-16T07:43:58;97350.94;;;13.43;86.09
26865;BME280;40618;51.166;10.322;2022-10-16T07:46:27;97369.00;;;13.46;86.19
26865;BME280;40618;51.166;10.322;2022-10-16T07:48:53;97381.13;;;13.47;85.91
26865;BME280;40618;51.166;10.322;2022-10-16T07:51:22;97393.22;;;13.48;86.00
26865;BME280;40618;51.166;10.322;2022-10-16T07:53:50;97392.34;;;13.47;86.13
26865;BME280;40618;51.166;10.322;2022-10-16T07:56:18;97396.72;;;13.47;85.85
26865;BME280;40618;51.166;10.322;2022-10-16T07:58:47;97376.69;;;13.49;85.93
26865;BME280;40618;51.166;10.322;2022-10-16T08:01:15;97380.16;;;13.49;85.63
26865;BME280;40618;51.166;10.322;2022-10-16T08:03:46;97384.38;;;13.52;85.67
26865;BME280;40618;51.166;10.322;2022-10-16T08:06:13;97390.41;;;13.52;85.98
26865;BME280;40618;51.166;10.322;2022-10-16T08:08:40;97386.91;;;13.53;85.99
26865;BME280;40618;51.166;10.322;2022-10-16T08:11:05;97390.28;;;13.56;85.78
26865;BME280;40618;51.166;10.322;2022-10-16T08:13:31;97391.97;;;13.57;85.77
26865;BME280;40618;51.166;10.322;2022-10-16T08:15:57;97395.38;;;13.59;85.97
26865;BME280;40618;51.166;10.322;2022-10-16T08:18:23;97395.28;;;13.60;85.71
26865;BME280;40618;51.166;10.322;2022-10-16T08:20:55;97405.63;;;13.62;85.82
26865;BME280;40618;51.166;10.322;2022-10-16T08:23:24;97401.97;;;13.66;86.10
26865;BME280;40618;51.166;10.322;2022-10-16T08:25:51;97403.47;;;13.71;86.21
26865;BME280;40618;51.166;10.322;2022-10-16T08:28:19;97405.94;;;13.75;86.05
26865;BME280;40618;51.166;10.322;2022-10-16T08:30:45;97393.72;;;13.77;85.80
26865;BME280;40618;51.166;10.322;2022-10-16T08:33:10;97404.94;;;13.77;85.62
26865;BME280;40618;51.166;10.322;2022-10-16T08:35:36;97411.84;;;13.78;85.65
26865;BME280;40618;51.166;10.322;2022-10-16T08:38:04;97410.09;;;13.79;85.84
26865;BME280;40618;51.166;10.322;2022-10-16T08:40:32;97410.88;;;13.81;85.64
26865;BME280;40618;51.166;10.322;2022-10-16T08:48:49;97449.91;;;13.81;85.65
26865;BME280;40618;51.166;10.322;2022-10-16T08:51:24;97442.88;;;13.83;86.01
26865;BME280;40618;51.166;10.322;2022-10-16T08:54:03;97450.69;;;13.83;85.98
26865;BME280;40618;51.166;10.322;2022-10-16T08:56:30;97449.78;;;13.84;85.92
26865;BME280;40618;51.166;10.322;2022-10-16T08:58:57;97449.78;;;13.84;85.89
26865;BME280;40618;51.166;10.322;2022-10-16T09:01:32;97455.81;;;13.84;85.81
26865;BME280;40618;51.166;10.322;2022-10-16T09:07:32;97470.38;;;13.88;85.61
26865;BME280;40618;51.166;10.322;2022-10-16T09:10:23;97472.00;;;13.91;85.88
26865;BME280;40618;51.166;10.322;2022-10-16T09:13:10;97475.34;;;13.95;85.93
26865;BME280;40618;51.166;10.322;2022-10-16T09:16:07;97475.28;;;13.96;85.55
26865;BME280;40618;51.166;10.322;2022-10-16T09:21:36;97481.97;;;14.02;86.15
26865;BME280;40618;51.166;10.322;2022-10-16T09:24:25;97482.69;;;14.05;86.00
26865;BME280;40618;51.166;10.322;2022-10-16T09:26:51;97482.41;;;14.12;85.69
26865;BME280;40618;51.166;10.322;2022-10-16T09:29:19;97486.56;;;14.16;85.65
26865;BME280;40618;51.166;10.322;2022-10-16T09:31:46;97482.06;;;14.19;86.10
26865;BME280;40618;51.166;10.322;2022-10-16T09:34:34;97484.53;;;14.22;85.76
26865;BME280;40618;51.166;10.322;2022-10-16T09:37:09;97493.22;;;14.23;85.77
26865;BME280;40618;51.166;10.322;2022-10-16T09:42:16;97482.56;;;14.28;85.60
26865;BME280;40618;51.166;10.322;2022-10-16T09:44:51;97499.75;;;14.32;85.53
26865;BME280;40618;51.166;10.322;2022-10-16T09:47:21;97510.03;;;14.35;85.74
26865;BME280;40618;51.166;10.322;2022-10-16T09:52:25;97509.84;;;14.39;85.77
26865;BME280;40618;51.166;10.322;2022-10-16T09:54:58;97514.00;;;14.44;85.79
26865;BME280;40618;51.166;10.322;2022-10-16T09:57:26;97512.09;;;14.47;85.67
26865;BME280;40618;51.166;10.322;2022-10-16T09:59:57;97504.84;;;14.54;85.93
26865;BME280;40618;51.166;10.322;2022-10-16T10:02:30;97498.41;;;14.63;85.80
26865;BME280;40618;51.166;10.322;2022-10-16T10:04:59;97510.03;;;14.75;85.76
26865;BME280;40618;51.166;10.322;2022-10-16T10:07:30;97518.56;;;14.78;85.74
26865;BME280;40618;51.166;10.322;2022-10-16T10:10:00;97516.78;;;14.79;85.60
26865;BME280;40618;51.166;10.322;2022-10-16T10:12:31;97508.97;;;14.79;85.46
26865;BME280;40618;51.166;10.322;2022-10-16T10:15:06;97515.03;;;14.79;85.31
26865;BME280;40618;51.166;10.322;2022-10-16T10:17:46;97522.44;;;14.88;85.40
26865;BME280;40618;51.166;10.322;2022-10-16T10:20:27;97517.00;;;14.93;85.08
26865;BME280;40618;51.166;10.322;2022-10-16T10:22:56;97521.22;;;14.96;85.19
26865;BME280;40618;51.166;10.322;2022-10-16T10:36:39;97531.47;;;15.37;84.84
26865;BME280;40618;51.166;10.322;2022-10-16T10:48:04;97530.16;;;15.46;84.41
26865;BME280;40618;51.166;10.322;2022-10-16T10:50:58;97553.19;;;15.55;84.74
26865;BME280;40618;51.166;10.322;2022-10-16T10:56:41;97544.09;;;15.64;84.34
26865;BME280;40618;51.166;10.322;2022-10-16T11:05:51;97548.59;;;15.60;83.62
26865;BME280;40618;51.166;10.322;2022-10-16T11:08:23;97551.13;;;15.62;83.52
26865;BME280;40618;51.166;10.322;2022-10-16T11:11:11;97545.69;;;15.66;83.90
26865;BME280;40618;51.166;10.322;2022-10-16T11:16:59;97545.88;;;15.81;83.69
26865;BME280;40618;51.166;10.322;2022-10-16T11:22:29;97547.78;;;16.12;83.29
26865;BME280;40618;51.166;10.322;2022-10-16T11:25:21;97544.81;;;16.20;83.32
26865;BME280;40618;51.166;10.322;2022-10-16T11:30:48;97537.84;;;16.36;82.83
26865;BME280;40618;51.166;10.322;2022-10-16T11:33:39;97542.13;;;16.37;82.66
26865;BME280;40618;51.166;10.322;2022-10-16T11:39:18;97544.78;;;16.53;82.22
26865;BME280;40618;51.166;10.322;2022-10-16T11:41:54;97549.09;;;16.54;82.20
26865;BME280;40618;51.166;10.322;2022-10-16T11:44:34;97542.97;;;16.55;81.85
26865;BME280;40618;51.166;10.322;2022-10-16T11:56:12;97556.25;;;16.51;80.83
26865;BME280;40618;51.166;10.322;2022-10-16T12:08:18;97558.66;;;16.55;80.77
26865;BME280;40618;51.166;10.322;2022-10-16T12:10:46;97560.41;;;16.55;80.59
26865;BME280;40618;51.166;10.322;2022-10-16T12:13:36;97558.66;;;16.55;80.73
26865;BME280;40618;51.166;10.322;2022-10-16T12:16:05;97560.31;;;16.56;80.64
26865;BME280;40618;51.166;10.322;2022-10-16T12:18:33;97548.19;;;16.55;80.45
26865;BME280;40618;51.166;10.322;2022-10-16T12:20:59;97556.03;;;16.55;80.40
26865;BME280;40618;51.166;10.322;2022-10-16T12:23:47;97548.09;;;16.57;80.28
26865;BME280;40618;51.166;10.322;2022-10-16T12:26:24;97548.84;;;16.59;80.23
26865;BME280;40618;51.166;10.322;2022-10-16T12:28:55;97551.56;;;16.57;80.01
26865;BME280;40618;51.166;10.322;2022-10-16T12:31:21;97554.00;;;16.61;80.05
26865;BME280;40618;51.166;10.322;2022-10-16T12:34:13;97552.41;;;16.58;79.61
26865;BME280;40618;51.166;10.322;2022-10-16T12:36:48;97560.41;;;16.55;79.60
26865;BME280;40618;51.166;10.322;2022-10-16T12:39:23;97569.19;;;16.54;79.75
26865;BME280;40618;51.166;10.322;2022-10-16T12:42:05;97559.56;;;16.54;79.52
26865;BME280;40618;51.166;10.322;2022-10-16T12:44:45;97566.31;;;16.58;79.54
26865;BME280;40618;51.166;10.322;2022-10-16T12:50:01;97560.91;;;16.62;79.00
26865;BME280;40618;51.166;10.322;2022-10-16T12:54:58;97557.31;;;16.64;79.22
26865;BME280;40618;51.166;10.322;2022-10-16T13:00:04;97557.91;;;16.69;79.02
26865;BME280;40618;51.166;10.322;2022-10-16T13:14:48;97564.31;;;16.80;78.47
26865;BME280;40618;51.166;10.322;2022-10-16T13:17:42;97563.22;;;16.84;78.38
26865;BME280;40618;51.166;10.322;2022-10-16T13:23:15;97575.09;;;16.91;78.28
26865;BME280;40618;51.166;10.322;2022-10-16T13:28:43;97580.75;;;16.99;78.07
26865;BME280;40618;51.166;10.322;2022-10-16T13:31:17;97574.53;;;17.02;77.92
26865;BME280;40618;51.166;10.322;2022-10-16T13:33:50;97576.03;;;17.06;77.97
26865;BME280;40618;51.166;10.322;2022-10-16T13:36:33;97582.03;;;17.08;78.05
26865;BME280;40618;51.166;10.322;2022-10-16T13:41:38;97574.00;;;17.11;77.51
26865;BME280;40618;51.166;10.322;2022-10-16T13:44:05;97580.84;;;17.14;77.65
26865;BME280;40618;51.166;10.322;2022-10-16T13:46:36;97580.84;;;17.14;77.64
26865;BME280;40618;51.166;10.322;2022-10-16T13:49:12;97584.38;;;17.13;77.51
26865;BME280;40618;51.166;10.322;2022-10-16T13:51:53;97587.75;;;17.15;77.57
26865;BME280;40618;51.166;10.322;2022-10-16T13:54:24;97592.16;;;17.14;77.19
26865;BME280;40618;51.166;10.322;2022-10-16T13:56:50;97596.53;;;17.14;77.28
26865;BME280;40618;51.166;10.322;2022-10-16T13:59:42;97598.16;;;17.16;77.15
26865;BME280;40618;51.166;10.322;2022-10-16T14:02:31;97598.22;;;17.15;76.96
26865;BME280;40618;51.166;10.322;2022-10-16T14:05:02;97602.78;;;17.11;76.92
26865;BME280;40618;51.166;10.322;2022-10-16T14:07:31;97611.50;;;17.12;76.97
26865;BME280;40618;51.166;10.322;2022-10-16T14:10:05;97617.38;;;17.15;77.17
26865;BME280;40618;51.166;10.322;2022-10-16T14:12:34;97616.28;;;17.19;77.15
26865;BME280;40618;51.166;10.322;2022-10-16T14:15:00;97625.75;;;17.22;77.23
26865;BME280;40618;51.166;10.322;2022-10-16T14:17:35;97622.13;;;17.24;76.78
26865;BME280;40618;51.166;10.322;2022-10-16T14:20:04;97632.50;;;17.26;77.02
26865;BME280;40618;51.166;10.322;2022-10-16T14:30:57;97633.00;;;17.33;76.75
26865;BME280;40618;51.166;10.322;2022-10-16T14:33:32;97633.00;;;17.33;76.79
26865;BME280;40618;51.166;10.322;2022-10-16T14:38:26;97640.03;;;17.32;76.71
26865;BME280;40618;51.166;10.322;2022-10-16T14:40:52;97637.50;;;17.31;76.63
26865;BME280;40618;51.166;10.322;2022-10-16T14:43:22;97636.81;;;17.27;76.75
26865;BME280;40618;51.166;10.322;2022-10-16T14:46:01;97644.75;;;17.25;76.46
26865;BME280;40618;51.166;10.322;2022-10-16T14:48:29;97643.06;;;17.24;76.61
26865;BME280;40618;51.166;10.322;2022-10-16T14:50:55;97646.53;;;17.25;76.45
26865;BME280;40618;51.166;10.322;2022-10-16T14:53:21;97650.16;;;17.22;76.58
26865;BME280;40618;51.166;10.322;2022-10-16T14:55:47;97647.53;;;17.22;76.48
26865;BME280;40618;51.166;10.322;2022-10-16T14:58:22;97645.00;;;17.21;76.33
26865;BME280;40618;51.166;10.322;2022-10-16T15:00:48;97652.09;;;17.19;76.46
26865;BME280;40618;51.166;10.322;2022-10-16T15:03:14;97652.25;;;17.16;76.42
26865;BME280;40618;51.166;10.322;2022-10-16T15:05:40;97651.38;;;17.15;76.62
26865;BME280;40618;51.166;10.322;2022-10-16T15:08:06;97653.25;;;17.13;76.17
26865;BME280;40618;51.166;10.322;2022-10-16T15:10:38;97651.66;;;17.11;76.58
26865;BME280;40618;51.166;10.322;2022-10-16T15:13:06;97653.50;;;17.08;76.32
26865;BME280;40618;51.166;10.322;2022-10-16T15:15:37;97651.97;;;17.04;76.39